Flight Track Log - Related Links

Times and Time Zones

All times are in EDT time to prevent confusion due to time zone crossing. See the VH-RUT flight status page for this flight to view local times or setup timezone preferences in your user account.

Time Position Orientation Groundspeed Altitude Reporting Facility
EDT Latitude Longitude Course Direction KTS MPH feet Rate Location/Type
Mon 04:51:05 PM -28.1520 153.4982 345° North 76 87 600  Level Aus ATC (RADAR)
Mon 04:52:20 PM -28.1177 153.4879 345° North 107 123 500 -48 Descending Aus ATC (RADAR)
Mon 04:53:10 PM -28.0940 153.4754 335° Northwest 114 131 500 -50 Level Aus ATC (RADAR)
Mon 04:54:20 PM -28.0574 153.4613 341° North 118 136 400 -43 Descending Aus ATC (RADAR)
Mon 04:55:30 PM -28.0196 153.4535 350° North 118 136 400  Level Aus ATC (RADAR)
Mon 04:56:35 PM -27.9856 153.4458 349° North 114 131 400  Level Aus ATC (RADAR)
Mon 04:57:40 PM -27.9616 153.4234 320° Northwest 108 124 400  Level Aus ATC (RADAR)
Mon 04:58:40 PM -27.9321 153.4175 350° North 114 131 400 97 Level Aus ATC (RADAR)
Mon 04:59:44 PM -27.8978 153.4189 North 114 131 600 81 Climbing Aus ATC (RADAR)
Mon 05:01:09 PM -27.8544 153.4130 353° North 111 128 600 40 Level Aus ATC (RADAR)
Mon 05:02:14 PM -27.8200 153.4045 348° North 115 132 700 -75 Climbing Aus ATC (RADAR)
Mon 05:02:29 PM -27.8119 153.4034 353° North 116 133 500  Descending Aus ATC (RADAR)
Mon 05:03:19 PM -27.7849 153.4043 North 115 132 700 282 Climbing Aus ATC (RADAR)
Mon 05:03:54 PM -27.7669 153.4055 North 111 128 900 320 Climbing Aus ATC (RADAR)
Mon 05:04:34 PM -27.7470 153.4056 360° North 105 121 1,100 185 Climbing Aus ATC (RADAR)
Mon 05:04:59 PM -27.7346 153.4047 356° North 106 122 1,100 -63 Level Aus ATC (RADAR)
Mon 05:06:09 PM -27.6975 153.4036 358° North 117 135 1,000 -63 Descending Aus ATC (RADAR)
Mon 05:06:34 PM -27.6837 153.4046 North 118 136 1,000 100 Level Aus ATC (RADAR)
Mon 05:07:09 PM -27.6645 153.4044 360° North 119 137 1,100  Climbing Aus ATC (RADAR)
Mon 05:07:49 PM -27.6423 153.4036 358° North 121 139 1,000 -75 Descending Aus ATC (RADAR)
Mon 05:08:29 PM -27.6196 153.4027 358° North 123 142 1,000  Level Aus ATC (RADAR)
Mon 05:09:04 PM -27.5999 153.4005 354° North 122 140 1,000  Level Aus ATC (RADAR)
Mon 05:09:39 PM -27.5807 153.3998 358° North 118 136 1,000  Level Aus ATC (RADAR)
Mon 05:10:09 PM -27.5640 153.3986 356° North 120 138 1,000  Level Aus ATC (RADAR)
Mon 05:11:19 PM -27.5260 153.3965 357° North 118 136 1,000  Level Aus ATC (RADAR)
Mon 05:11:39 PM -27.5148 153.3962 358° North 119 137 1,000  Level Aus ATC (RADAR)
Mon 05:12:19 PM -27.4925 153.3959 359° North 118 136 1,000  Level Aus ATC (RADAR)
Mon 05:12:59 PM -27.4705 153.3954 359° North 118 136 1,000  Level Aus ATC (RADAR)
Mon 05:13:24 PM -27.4568 153.3950 359° North 118 136 1,000  Level Aus ATC (RADAR)
Mon 05:13:59 PM -27.4373 153.3938 357° North 120 138 1,000 -80 Level Aus ATC (RADAR)
Mon 05:14:39 PM -27.4152 153.3915 355° North 120 138 900 -81 Descending Aus ATC (RADAR)
Mon 05:15:13 PM -27.3957 153.3891 354° North 121 139 900  Level Aus ATC (RADAR)
Mon 05:16:08 PM -27.3657 153.3846 352° North 119 137 900  Level Aus ATC (RADAR)
Mon 05:16:28 PM -27.3545 153.3832 354° North 121 139 900 -109 Level Aus ATC (RADAR)
Mon 05:17:03 PM -27.3356 153.3817 356° North 118 136 800 -80 Descending Aus ATC (RADAR)
Mon 05:17:43 PM -27.3136 153.3794 355° North 117 135 800 160 Level Aus ATC (RADAR)
Mon 05:18:18 PM -27.2949 153.3767 353° North 115 132 1,000 171 Climbing Aus ATC (RADAR)
Mon 05:18:53 PM -27.2767 153.3735 351° North 112 129 1,000  Level Aus ATC (RADAR)
Mon 05:19:23 PM -27.2612 153.3697 348° North 114 131 1,000  Level Aus ATC (RADAR)
Mon 05:19:58 PM -27.2429 153.3644 346° North 116 133 1,000  Level Aus ATC (RADAR)
Mon 05:21:28 PM -27.1957 153.3560 351° North 115 132 1,000  Level Aus ATC (RADAR)
Mon 05:22:13 PM -27.1725 153.3675 24° Northeast 122 140 1,000  Level Aus ATC (RADAR)
Mon 05:22:28 PM -27.1656 153.3733 37° Northeast 123 142 1,000  Level Aus ATC (RADAR)
Mon 05:23:08 PM -27.1443 153.3718 356° North 113 130 1,000  Level Aus ATC (RADAR)
Mon 05:23:43 PM -27.1260 153.3664 345° North 116 133 1,000 -86 Level Aus ATC (RADAR)
Mon 05:24:18 PM -27.1093 153.3582 337° Northwest 113 130 900 -87 Descending Aus ATC (RADAR)
Mon 05:24:52 PM -27.0909 153.3538 348° North 115 132 900  Level Aus ATC (RADAR)
Mon 05:25:22 PM -27.0746 153.3513 352° North 118 136 900 180 Level Aus ATC (RADAR)
Mon 05:26:32 PM -27.0383 153.3449 351° North 111 128 1,200 114 Climbing Aus ATC (RADAR)
Mon 05:27:07 PM -27.0210 153.3411 349° North 109 125 1,100 -171 Descending Aus ATC (RADAR)
Mon 05:27:42 PM -27.0028 153.3371 349° North 114 131 1,000 -171 Descending Aus ATC (RADAR)
Mon 05:28:17 PM -26.9845 153.3327 348° North 115 132 900 -92 Descending Aus ATC (RADAR)
Mon 05:28:47 PM -26.9689 153.3289 348° North 115 132 900  Level Aus ATC (RADAR)
Mon 05:29:22 PM -26.9507 153.3250 349° North 114 131 900 171 Level Aus ATC (RADAR)
Mon 05:29:57 PM -26.9334 153.3212 349° North 108 124 1,100 86 Climbing Aus ATC (RADAR)
Mon 05:30:32 PM -26.9161 153.3174 349° North 109 125 1,000 -50 Descending Aus ATC (RADAR)
Mon 05:31:57 PM -26.8740 153.3087 350° North 109 125 1,000  Level Aus ATC (RADAR)
Mon 05:32:22 PM -26.8616 153.3058 348° North 109 125 1,000 -109 Level Aus ATC (RADAR)
Mon 05:32:52 PM -26.8469 153.3019 346° North 109 125 900  Descending Aus ATC (RADAR)
Mon 05:33:37 PM -26.8245 153.2965 348° North 109 125 1,000 225 Climbing Aus ATC (RADAR)
Mon 05:34:12 PM -26.8083 153.2932 350° North 102 117 1,200 185 Climbing Aus ATC (RADAR)
Mon 05:34:42 PM -26.7944 153.2921 356° North 100 115 1,200 -94 Level Aus ATC (RADAR)
Mon 05:35:16 PM -26.7777 153.2888 350° North 104 120 1,100 -115 Descending Aus ATC (RADAR)
Mon 05:36:26 PM -26.7439 153.2798 347° North 108 124 1,000 -63 Descending Aus ATC (RADAR)
Mon 05:36:52 PM -26.7321 153.2765 346° North 106 122 1,000 -120 Level Aus ATC (RADAR)
Mon 05:37:16 PM -26.7197 153.2743 351° North 107 123 900 -98 Descending Aus ATC (RADAR)
Mon 05:37:53 PM -26.7026 153.2696 346° North 108 124 900  Level Aus ATC (RADAR)
Mon 05:38:36 PM -26.6805 153.2632 346° North 109 125 900 77 Level Aus ATC (RADAR)
Mon 05:39:11 PM -26.6641 153.2607 352° North 102 117 1,000 171 Climbing Aus ATC (RADAR)
Mon 05:39:46 PM -26.6473 153.2564 347° North 103 119 1,100 92 Climbing Aus ATC (RADAR)
Mon 05:40:16 PM -26.6333 153.2525 346° North 104 120 1,100 -52 Level Aus ATC (RADAR)
Mon 05:41:41 PM -26.5930 153.2440 349° North 103 119 1,000 -57 Descending Aus ATC (RADAR)
Mon 05:42:01 PM -26.5831 153.2425 352° North 105 121 1,000  Level Aus ATC (RADAR)
Mon 05:42:26 PM -26.5710 153.2409 353° North 105 121 1,000  Level Aus ATC (RADAR)
Mon 05:43:01 PM -26.5548 153.2372 348° North 103 119 1,000 -80 Level Aus ATC (RADAR)
Mon 05:43:41 PM -26.5451 153.2231 308° West 86 99 900 -75 Descending Aus ATC (RADAR)
Mon 05:44:21 PM -26.5291 153.2119 328° Northwest 109 125 900 69 Level Aus ATC (RADAR)
Mon 05:45:08 PM -26.5083 153.2142 North 99 114 1,000 86 Climbing Aus ATC (RADAR)
Mon 05:45:31 PM -26.4973 153.2139 359° North 95 109 1,000 51 Level Aus ATC (RADAR)
Mon 05:47:06 PM -26.4537 153.2132 359° North 100 115 1,100 50 Climbing Aus ATC (RADAR)
Mon 05:47:31 PM -26.4423 153.2120 355° North 99 114 1,100 -100 Level Aus ATC (RADAR)
Mon 05:48:06 PM -26.4273 153.2059 340° North 97 112 1,000 80 Descending Aus ATC (RADAR)
Mon 05:48:46 PM -26.4091 153.2005 345° North 99 114 1,200 480 Climbing Aus ATC (RADAR)
Mon 05:49:21 PM -26.3949 153.1979 351° North 91 105 1,600 600 Climbing Aus ATC (RADAR)
Mon 05:49:36 PM -26.3888 153.1966 349° North 91 105 1,700 456 Climbing Aus ATC (RADAR)
Mon 05:50:40 PM -26.3613 153.1914 350° North 91 105 2,200 458 Climbing Aus ATC (RADAR)
Mon 05:52:00 PM -26.3265 153.1824 347° North 96 110 2,800 457 Climbing Aus ATC (RADAR)
Mon 05:52:25 PM -26.3154 153.1805 351° North 96 110 3,000 400 Climbing Aus ATC (RADAR)
Mon 05:53:00 PM -26.2989 153.1776 351° North 101 116 3,200 450 Climbing Aus ATC (RADAR)
Mon 05:53:45 PM -26.2781 153.1719 346° North 102 117 3,600 525 Climbing Aus ATC (RADAR)
Mon 05:54:20 PM -26.2617 153.1672 346° North 103 119 3,900 429 Climbing Aus ATC (RADAR)
Mon 05:54:55 PM -26.2450 153.1651 353° North 104 120 4,100 343 Climbing Aus ATC (RADAR)
Mon 05:55:30 PM -26.2275 153.1621 351° North 108 124 4,300 365 Climbing Aus ATC (RADAR)
Mon 05:56:50 PM -26.1872 153.1530 348° North 113 130 4,800 273 Climbing Aus ATC (RADAR)
Mon 05:57:20 PM -26.1700 153.1496 350° North 124 143 4,800  Level Aus ATC (RADAR)
Mon 05:57:45 PM -26.1549 153.1452 345° North 133 153 4,800 -200 Level Aus ATC (RADAR)
Mon 05:58:20 PM -26.1331 153.1414 351° North 135 155 4,600 -261 Descending Aus ATC (RADAR)
Mon 05:58:54 PM -26.1121 153.1373 350° North 132 152 4,500  Descending Aus ATC (RADAR)
Mon 05:59:29 PM -26.0921 153.1310 344° North 128 147 4,600 92 Climbing Aus ATC (RADAR)
Mon 05:59:59 PM -26.0741 153.1270 349° North 130 150 4,600  Level Aus ATC (RADAR)
Mon 06:00:39 PM -26.0499 153.1203 346° North 134 154 4,600  Level Aus ATC (RADAR)
Mon 06:01:59 PM -26.0030 153.1073 346° North 130 150 4,600 -104 Level Aus ATC (RADAR)
Mon 06:02:34 PM -25.9827 153.1018 346° North 129 148 4,400 -120 Descending Aus ATC (RADAR)
Mon 06:02:49 PM -25.9743 153.0984 340° North 128 147 4,500 240 Climbing Aus ATC (RADAR)
Mon 06:03:24 PM -25.9550 153.0915 342° North 125 144 4,600 80 Climbing Aus ATC (RADAR)
Mon 06:04:04 PM -25.9323 153.0857 347° North 125 144 4,600  Level Aus ATC (RADAR)
Mon 06:04:39 PM -25.9119 153.0822 351° North 126 145 4,600  Level Aus ATC (RADAR)
Mon 06:05:14 PM -25.8914 153.0783 350° North 128 147 4,600  Level Aus ATC (RADAR)
Mon 06:05:49 PM -25.8708 153.0744 350° North 128 147 4,600  Level Aus ATC (RADAR)
Mon 06:07:14 PM -25.8209 153.0636 349° North 128 147 4,600 55 Level Aus ATC (RADAR)
Mon 06:07:39 PM -25.8061 153.0623 356° North 128 147 4,700  Climbing Aus ATC (RADAR)
Mon 06:08:14 PM -25.7854 153.0587 351° North 136 157 4,600 -81 Descending Aus ATC (RADAR)
Mon 06:08:53 PM -25.7627 153.0513 344° North 128 147 4,600  Level Aus ATC (RADAR)
Mon 06:09:28 PM -25.7419 153.0471 350° North 129 148 4,600  Level Aus ATC (RADAR)
Mon 06:10:03 PM -25.7211 153.0432 350° North 130 150 4,600  Level Aus ATC (RADAR)
Mon 06:12:48 PM -25.6255 153.0161 346° North 124 143 4,600  Level Aus ATC (RADAR)
Mon 06:13:23 PM -25.6049 153.0113 348° North 129 148 4,600 25 Level Aus ATC (RADAR)
Mon 06:16:48 PM -25.4835 152.9920 352° North 133 153 4,700 -7 Climbing Aus ATC (RADAR)
Mon 06:21:38 PM -25.3104 152.9619 351° North 133 153 -19 Descending Aus ATC (RADAR)
Mon 06:27:22 PM -25.1069 152.9115 347° North 128 147 4,500 764 Climbing Aus ATC (RADAR)
Mon 06:27:47 PM -25.0921 152.9103 356° North 127 146 4,700 100 Climbing Aus ATC (RADAR)
Mon 06:28:22 PM -25.0706 152.9094 358° North 132 152 4,600 -67 Descending Aus ATC (RADAR)
Mon 06:29:17 PM -25.0382 152.9016 348° North 130 150 4,600  Level Aus ATC (RADAR)
Mon 06:29:52 PM -25.0176 152.8965 348° North 130 150 4,600  Level Aus ATC (RADAR)
Mon 06:30:37 PM -24.9914 152.8881 344° North 129 148 4,600  Level Aus ATC (RADAR)
Mon 06:31:02 PM -24.9761 152.8851 350° North 132 152 4,600  Level Aus ATC (RADAR)
Mon 06:32:01 PM -24.9406 152.8772 349° North 130 150 4,600  Level Aus ATC (RADAR)
Mon 06:32:26 PM -24.9256 152.8743 350° North 131 151 4,600  Level Aus ATC (RADAR)
Mon 06:32:51 PM -24.9105 152.8713 350° North 131 151 4,600  Level Aus ATC (RADAR)
Mon 06:33:26 PM -24.8893 152.8674 351° North 132 152 4,600  Level Aus ATC (RADAR)
Mon 06:34:12 PM -24.8623 152.8618 349° North 131 151 4,600  Level Aus ATC (RADAR)
Mon 06:34:46 PM -24.8410 152.8578 350° North 133 153 4,600 -76 Level Aus ATC (RADAR)
Mon 06:35:31 PM -24.8132 152.8515 348° North 135 155 4,500 -115 Descending Aus ATC (RADAR)
Mon 06:35:38 PM -24.8101 152.8509 349° North 135 155 4,500  Level Aus ATC (RADAR)
Mon 06:37:02 PM -24.7578 152.8399 349° North 137 158 4,500 -56 Level Aus ATC (RADAR)
Mon 06:37:26 PM -24.7440 152.8365 347° North 130 150 4,400 -122 Descending Aus ATC (RADAR)
Mon 06:37:51 PM -24.7285 152.8337 351° North 134 154 4,400 200 Level Aus ATC (RADAR)
Mon 06:38:26 PM -24.7078 152.8289 348° North 131 151 4,600 75 Climbing Aus ATC (RADAR)
Mon 06:39:11 PM -24.6816 152.8221 347° North 129 148 4,500 75 Descending Aus ATC (RADAR)
Mon 06:39:46 PM -24.6611 152.8172 348° North 129 148 4,700 71 Climbing Aus ATC (RADAR)
Mon 06:40:36 PM -24.6319 152.8100 347° North 129 148 4,600 -92 Descending Aus ATC (RADAR)
Mon 06:40:51 PM -24.6233 152.8082 349° North 127 146 4,600  Level Aus ATC (RADAR)
Mon 06:41:26 PM -24.6026 152.8040 349° North 129 148 4,600 -48 Level Aus ATC (RADAR)
Mon 06:42:56 PM -24.5477 152.7917 348° North 136 157 4,500 -114 Descending Aus ATC (RADAR)
Mon 06:43:11 PM -24.5382 152.7897 350° North 137 158 4,400  Descending Aus ATC (RADAR)
Mon 06:43:45 PM -24.5171 152.7849 348° North 133 153 4,500 87 Climbing Aus ATC (RADAR)
Mon 06:44:20 PM -24.4964 152.7795 347° North 131 151 4,500 -171 Level Aus ATC (RADAR)
Mon 06:44:55 PM -24.4744 152.7742 347° North 138 159 4,300 -333 Descending Aus ATC (RADAR)
Mon 06:45:50 PM -24.4393 152.7662 348° North 138 159 4,000 -343 Descending Aus ATC (RADAR)
Mon 06:46:05 PM -24.4290 152.7634 346° North 144 166 3,900 -360 Descending Aus ATC (RADAR)
Mon 06:46:40 PM -24.4054 152.7579 348° North 148 170 3,700 -365 Descending Aus ATC (RADAR)
Mon 06:48:00 PM -24.3543 152.7478 350° North 141 162 3,200 -343 Descending Aus ATC (RADAR)
Mon 06:48:25 PM -24.3392 152.7449 350° North 138 159 3,100 -300 Descending Aus ATC (RADAR)
Mon 06:49:00 PM -24.3162 152.7413 352° North 140 161 2,900 -353 Descending Aus ATC (RADAR)
Mon 06:49:50 PM -24.2856 152.7370 353° North 136 157 2,600 -353 Descending Aus ATC (RADAR)
Mon 06:50:25 PM -24.2632 152.7358 357° North 137 158 2,400 -300 Descending Aus ATC (RADAR)
Mon 06:51:10 PM -24.2359 152.7329 355° North 133 153 2,200 -333 Descending Aus ATC (RADAR)
Mon 06:51:37 PM -24.2212 152.7309 353° North 131 151 2,000 -436 Descending Aus ATC (RADAR)
Mon 06:53:00 PM -24.1713 152.7206 349° North 129 148 1,400 -444 Descending Aus ATC (RADAR)
Mon 06:53:25 PM -24.1576 152.7164 344° North 127 146 1,200 -508 Descending Aus ATC (RADAR)
Mon 06:53:59 PM -24.1398 152.7097 341° North 120 138 900 -357 Descending Aus ATC (RADAR)
Mon 06:54:49 PM -24.1132 152.6989 340° North 121 139 700 -141 Descending Aus ATC (RADAR)
Mon 06:55:24 PM -24.1026 152.7066 33° Northeast 118 136 700 -150 Level Aus ATC (RADAR)
Mon 06:56:09 PM -24.1242 152.7021 191° South 119 137 500 -343 Descending Aus ATC (RADAR)
Mon 06:56:34 PM -24.1316 152.7127 128° Southeast 115 132 300 -514 Descending Aus ATC (RADAR)
Mon 06:56:44 PM -24.1349 152.7172 129° Southeast 115 132 200 -600 Descending Aus ATC (RADAR)
Mon 06:58:00 PM -24.1260 152.7165 356° North  Level Estimated

Login

Don't have an account? Register now (free) for customized features, flight alerts, and more!